sensor_id;sensor_type;location;lat;lon;timestamp;temperature;humidity
16929;DHT22;8581;47.334;11.190;2022-07-11T00:00:56;10.50;99.90
16929;DHT22;8581;47.334;11.190;2022-07-11T00:03:28;10.50;99.90
16929;DHT22;8581;47.334;11.190;2022-07-11T00:05:59;10.40;99.90
16929;DHT22;8581;47.334;11.190;2022-07-11T00:08:31;10.30;99.90
16929;DHT22;8581;47.334;11.190;2022-07-11T00:11:03;10.20;99.90
16929;DHT22;8581;47.334;11.190;2022-07-11T00:13:35;10.10;99.90
16929;DHT22;8581;47.334;11.190;2022-07-11T00:16:07;10.20;99.90
16929;DHT22;8581;47.334;11.190;2022-07-11T00:18:39;10.20;99.90
16929;DHT22;8581;47.334;11.190;2022-07-11T00:21:10;10.10;99.90
16929;DHT22;8581;47.334;11.190;2022-07-11T00:23:42;9.70;99.90
16929;DHT22;8581;47.334;11.190;2022-07-11T00:26:13;10.10;99.90
16929;DHT22;8581;47.334;11.190;2022-07-11T00:28:45;10.10;99.90
16929;DHT22;8581;47.334;11.190;2022-07-11T00:31:17;10.10;99.90
16929;DHT22;8581;47.334;11.190;2022-07-11T00:33:48;10.10;99.90
16929;DHT22;8581;47.334;11.190;2022-07-11T00:36:20;9.90;99.90
16929;DHT22;8581;47.334;11.190;2022-07-11T00:38:51;9.90;99.90
16929;DHT22;8581;47.334;11.190;2022-07-11T00:41:23;9.80;99.90
16929;DHT22;8581;47.334;11.190;2022-07-11T00:43:56;9.80;99.90
16929;DHT22;8581;47.334;11.190;2022-07-11T00:46:27;9.80;99.90
16929;DHT22;8581;47.334;11.190;2022-07-11T00:48:58;9.70;99.90
16929;DHT22;8581;47.334;11.190;2022-07-11T00:51:30;9.60;99.90
16929;DHT22;8581;47.334;11.190;2022-07-11T00:54:01;9.60;99.90
16929;DHT22;8581;47.334;11.190;2022-07-11T00:56:33;9.60;99.90
16929;DHT22;8581;47.334;11.190;2022-07-11T00:59:04;9.60;99.90
16929;DHT22;8581;47.334;11.190;2022-07-11T01:01:37;9.50;99.90
16929;DHT22;8581;47.334;11.190;2022-07-11T01:04:08;9.50;99.90
16929;DHT22;8581;47.334;11.190;2022-07-11T01:06:40;9.40;99.90
16929;DHT22;8581;47.334;11.190;2022-07-11T01:09:12;9.50;99.90
16929;DHT22;8581;47.334;11.190;2022-07-11T01:11:43;9.50;99.90
16929;DHT22;8581;47.334;11.190;2022-07-11T01:14:15;9.50;99.90
16929;DHT22;8581;47.334;11.190;2022-07-11T01:16:46;9.60;99.90
16929;DHT22;8581;47.334;11.190;2022-07-11T01:19:18;9.70;99.90
16929;DHT22;8581;47.334;11.190;2022-07-11T01:21:50;9.80;99.90
16929;DHT22;8581;47.334;11.190;2022-07-11T01:24:21;9.90;99.90
16929;DHT22;8581;47.334;11.190;2022-07-11T01:26:53;9.80;99.90
16929;DHT22;8581;47.334;11.190;2022-07-11T01:29:24;9.70;99.90
16929;DHT22;8581;47.334;11.190;2022-07-11T01:31:56;9.60;99.90
16929;DHT22;8581;47.334;11.190;2022-07-11T01:34:28;9.60;99.90
16929;DHT22;8581;47.334;11.190;2022-07-11T01:36:59;9.50;99.90
16929;DHT22;8581;47.334;11.190;2022-07-11T01:39:31;9.50;99.90
16929;DHT22;8581;47.334;11.190;2022-07-11T01:42:03;9.50;99.90
16929;DHT22;8581;47.334;11.190;2022-07-11T01:44:34;9.60;99.90
16929;DHT22;8581;47.334;11.190;2022-07-11T01:47:06;9.50;99.90
16929;DHT22;8581;47.334;11.190;2022-07-11T01:49:37;9.50;99.90
16929;DHT22;8581;47.334;11.190;2022-07-11T01:52:09;9.40;99.90
16929;DHT22;8581;47.334;11.190;2022-07-11T01:54:41;9.40;99.90
16929;DHT22;8581;47.334;11.190;2022-07-11T01:57:13;9.30;99.90
16929;DHT22;8581;47.334;11.190;2022-07-11T01:59:44;9.40;99.90
16929;DHT22;8581;47.334;11.190;2022-07-11T02:02:16;9.50;99.90
16929;DHT22;8581;47.334;11.190;2022-07-11T02:04:48;9.40;99.90
16929;DHT22;8581;47.334;11.190;2022-07-11T02:07:19;9.40;99.90
16929;DHT22;8581;47.334;11.190;2022-07-11T02:09:51;9.40;99.90
16929;DHT22;8581;47.334;11.190;2022-07-11T02:12:23;9.20;99.90
16929;DHT22;8581;47.334;11.190;2022-07-11T02:14:54;9.30;99.90
16929;DHT22;8581;47.334;11.190;2022-07-11T02:17:26;9.20;99.90
16929;DHT22;8581;47.334;11.190;2022-07-11T02:19:57;9.20;99.90
16929;DHT22;8581;47.334;11.190;2022-07-11T02:22:29;9.10;99.90
16929;DHT22;8581;47.334;11.190;2022-07-11T02:25:01;9.20;99.90
16929;DHT22;8581;47.334;11.190;2022-07-11T02:27:32;9.10;99.90
16929;DHT22;8581;47.334;11.190;2022-07-11T02:30:04;9.30;99.90
16929;DHT22;8581;47.334;11.190;2022-07-11T02:32:37;9.30;99.90
16929;DHT22;8581;47.334;11.190;2022-07-11T02:35:08;9.10;99.90
16929;DHT22;8581;47.334;11.190;2022-07-11T02:37:40;9.00;99.90
16929;DHT22;8581;47.334;11.190;2022-07-11T02:40:11;9.00;99.90
16929;DHT22;8581;47.334;11.190;2022-07-11T02:42:43;9.00;99.90
16929;DHT22;8581;47.334;11.190;2022-07-11T02:45:14;8.90;99.90
16929;DHT22;8581;47.334;11.190;2022-07-11T02:47:46;8.90;99.90
16929;DHT22;8581;47.334;11.190;2022-07-11T02:50:18;9.00;99.90
16929;DHT22;8581;47.334;11.190;2022-07-11T02:52:49;8.90;99.90
16929;DHT22;8581;47.334;11.190;2022-07-11T02:55:21;8.90;99.90
16929;DHT22;8581;47.334;11.190;2022-07-11T02:57:52;8.80;99.90
16929;DHT22;8581;47.334;11.190;2022-07-11T03:00:24;8.90;99.90
16929;DHT22;8581;47.334;11.190;2022-07-11T03:02:56;8.80;99.90
16929;DHT22;8581;47.334;11.190;2022-07-11T03:05:27;8.80;99.90
16929;DHT22;8581;47.334;11.190;2022-07-11T03:07:59;8.80;99.90
16929;DHT22;8581;47.334;11.190;2022-07-11T03:10:31;8.80;99.90
16929;DHT22;8581;47.334;11.190;2022-07-11T03:13:02;8.90;99.90
16929;DHT22;8581;47.334;11.190;2022-07-11T03:15:34;9.00;99.90
16929;DHT22;8581;47.334;11.190;2022-07-11T03:18:05;8.90;99.90
16929;DHT22;8581;47.334;11.190;2022-07-11T03:20:37;9.00;99.90
16929;DHT22;8581;47.334;11.190;2022-07-11T03:23:09;8.90;99.90
16929;DHT22;8581;47.334;11.190;2022-07-11T03:25:40;9.00;99.90
16929;DHT22;8581;47.334;11.190;2022-07-11T03:28:12;9.00;99.90
16929;DHT22;8581;47.334;11.190;2022-07-11T03:30:43;9.20;99.90
16929;DHT22;8581;47.334;11.190;2022-07-11T03:33:15;9.20;99.90
16929;DHT22;8581;47.334;11.190;2022-07-11T03:35:47;9.10;99.90
16929;DHT22;8581;47.334;11.190;2022-07-11T03:38:19;9.10;99.90
16929;DHT22;8581;47.334;11.190;2022-07-11T03:40:50;9.10;99.90
16929;DHT22;8581;47.334;11.190;2022-07-11T03:43:22;9.20;99.90
16929;DHT22;8581;47.334;11.190;2022-07-11T03:45:53;9.20;99.90
16929;DHT22;8581;47.334;11.190;2022-07-11T03:48:25;9.20;99.90
16929;DHT22;8581;47.334;11.190;2022-07-11T03:50:56;9.10;99.90
16929;DHT22;8581;47.334;11.190;2022-07-11T03:53:28;9.20;99.90
16929;DHT22;8581;47.334;11.190;2022-07-11T03:56:00;9.20;99.90
16929;DHT22;8581;47.334;11.190;2022-07-11T03:58:31;9.20;99.90
16929;DHT22;8581;47.334;11.190;2022-07-11T04:01:03;9.30;99.90
16929;DHT22;8581;47.334;11.190;2022-07-11T04:03:34;9.30;99.90
16929;DHT22;8581;47.334;11.190;2022-07-11T04:06:06;9.30;99.90
16929;DHT22;8581;47.334;11.190;2022-07-11T04:08:38;9.30;99.90
16929;DHT22;8581;47.334;11.190;2022-07-11T04:11:09;9.40;99.90
16929;DHT22;8581;47.334;11.190;2022-07-11T04:13:41;9.50;99.90
16929;DHT22;8581;47.334;11.190;2022-07-11T04:16:13;9.60;99.90
16929;DHT22;8581;47.334;11.190;2022-07-11T04:18:44;9.60;99.90
16929;DHT22;8581;47.334;11.190;2022-07-11T04:21:16;9.70;99.90
16929;DHT22;8581;47.334;11.190;2022-07-11T04:23:47;9.70;99.90
16929;DHT22;8581;47.334;11.190;2022-07-11T04:26:19;9.80;99.90
16929;DHT22;8581;47.334;11.190;2022-07-11T04:28:51;9.80;99.90
16929;DHT22;8581;47.334;11.190;2022-07-11T04:31:22;9.90;99.90
16929;DHT22;8581;47.334;11.190;2022-07-11T04:33:54;10.00;99.90
16929;DHT22;8581;47.334;11.190;2022-07-11T04:36:25;10.10;99.90
16929;DHT22;8581;47.334;11.190;2022-07-11T04:38:57;10.10;99.90
16929;DHT22;8581;47.334;11.190;2022-07-11T04:41:29;10.30;99.90
16929;DHT22;8581;47.334;11.190;2022-07-11T04:44:00;10.50;99.90
16929;DHT22;8581;47.334;11.190;2022-07-11T04:46:32;10.50;99.90
16929;DHT22;8581;47.334;11.190;2022-07-11T04:49:03;10.70;99.90
16929;DHT22;8581;47.334;11.190;2022-07-11T04:51:35;10.80;99.90
16929;DHT22;8581;47.334;11.190;2022-07-11T04:54:07;10.80;99.90
16929;DHT22;8581;47.334;11.190;2022-07-11T04:56:38;10.90;99.90
16929;DHT22;8581;47.334;11.190;2022-07-11T04:59:10;11.40;99.90
16929;DHT22;8581;47.334;11.190;2022-07-11T05:01:42;11.80;99.90
16929;DHT22;8581;47.334;11.190;2022-07-11T05:04:13;11.90;99.90
16929;DHT22;8581;47.334;11.190;2022-07-11T05:06:45;12.00;99.90
16929;DHT22;8581;47.334;11.190;2022-07-11T05:09:16;12.00;99.90
16929;DHT22;8581;47.334;11.190;2022-07-11T05:11:48;11.90;99.90
16929;DHT22;8581;47.334;11.190;2022-07-11T05:14:20;12.00;99.90
16929;DHT22;8581;47.334;11.190;2022-07-11T05:16:51;12.00;99.90
16929;DHT22;8581;47.334;11.190;2022-07-11T05:19:23;12.20;99.90
16929;DHT22;8581;47.334;11.190;2022-07-11T05:21:54;12.10;99.90
16929;DHT22;8581;47.334;11.190;2022-07-11T05:24:26;12.30;99.90
16929;DHT22;8581;47.334;11.190;2022-07-11T05:26:58;12.40;99.90
16929;DHT22;8581;47.334;11.190;2022-07-11T05:29:29;12.50;99.90
16929;DHT22;8581;47.334;11.190;2022-07-11T05:32:01;12.60;99.90
16929;DHT22;8581;47.334;11.190;2022-07-11T05:34:32;12.70;99.90
16929;DHT22;8581;47.334;11.190;2022-07-11T05:37:04;12.70;99.90
16929;DHT22;8581;47.334;11.190;2022-07-11T05:39:36;12.90;99.90
16929;DHT22;8581;47.334;11.190;2022-07-11T05:42:07;12.70;99.90
16929;DHT22;8581;47.334;11.190;2022-07-11T05:44:39;12.80;99.90
16929;DHT22;8581;47.334;11.190;2022-07-11T05:47:10;12.70;99.90
16929;DHT22;8581;47.334;11.190;2022-07-11T05:49:42;12.70;99.90
16929;DHT22;8581;47.334;11.190;2022-07-11T05:52:14;12.80;99.90
16929;DHT22;8581;47.334;11.190;2022-07-11T05:54:45;12.80;99.90
16929;DHT22;8581;47.334;11.190;2022-07-11T05:57:17;12.60;99.90
16929;DHT22;8581;47.334;11.190;2022-07-11T05:59:48;12.70;99.90
16929;DHT22;8581;47.334;11.190;2022-07-11T06:02:20;12.90;99.90
16929;DHT22;8581;47.334;11.190;2022-07-11T06:04:52;12.90;99.90
16929;DHT22;8581;47.334;11.190;2022-07-11T06:07:23;13.00;99.90
16929;DHT22;8581;47.334;11.190;2022-07-11T06:10:01;12.90;99.90
16929;DHT22;8581;47.334;11.190;2022-07-11T06:12:32;13.00;99.90
16929;DHT22;8581;47.334;11.190;2022-07-11T06:15:05;12.90;99.90
16929;DHT22;8581;47.334;11.190;2022-07-11T06:17:36;12.80;99.90
16929;DHT22;8581;47.334;11.190;2022-07-11T06:20:09;12.80;99.90
16929;DHT22;8581;47.334;11.190;2022-07-11T06:22:40;12.70;99.90
16929;DHT22;8581;47.334;11.190;2022-07-11T06:25:12;12.70;99.90
16929;DHT22;8581;47.334;11.190;2022-07-11T06:27:44;12.80;99.90
16929;DHT22;8581;47.334;11.190;2022-07-11T06:30:15;12.90;99.90
16929;DHT22;8581;47.334;11.190;2022-07-11T06:32:47;12.90;99.90
16929;DHT22;8581;47.334;11.190;2022-07-11T06:35:18;13.00;99.90
16929;DHT22;8581;47.334;11.190;2022-07-11T06:37:50;13.10;99.90
16929;DHT22;8581;47.334;11.190;2022-07-11T06:40:22;13.20;99.90
16929;DHT22;8581;47.334;11.190;2022-07-11T06:42:53;13.30;99.90
16929;DHT22;8581;47.334;11.190;2022-07-11T06:45:25;13.40;99.90
16929;DHT22;8581;47.334;11.190;2022-07-11T06:47:57;13.40;99.90
16929;DHT22;8581;47.334;11.190;2022-07-11T06:50:29;13.40;99.90
16929;DHT22;8581;47.334;11.190;2022-07-11T06:53:00;13.40;99.90
16929;DHT22;8581;47.334;11.190;2022-07-11T06:55:32;13.40;99.90
16929;DHT22;8581;47.334;11.190;2022-07-11T06:58:03;13.50;99.90
16929;DHT22;8581;47.334;11.190;2022-07-11T07:00:35;13.50;99.90
16929;DHT22;8581;47.334;11.190;2022-07-11T07:03:06;13.60;99.90
16929;DHT22;8581;47.334;11.190;2022-07-11T07:05:38;13.60;99.90
16929;DHT22;8581;47.334;11.190;2022-07-11T07:08:09;13.60;99.90
16929;DHT22;8581;47.334;11.190;2022-07-11T07:10:41;13.60;99.90
16929;DHT22;8581;47.334;11.190;2022-07-11T07:13:13;13.70;99.90
16929;DHT22;8581;47.334;11.190;2022-07-11T07:15:44;13.70;99.90
16929;DHT22;8581;47.334;11.190;2022-07-11T07:18:16;13.70;99.90
16929;DHT22;8581;47.334;11.190;2022-07-11T07:20:47;13.80;99.90
16929;DHT22;8581;47.334;11.190;2022-07-11T07:23:19;13.80;99.90
16929;DHT22;8581;47.334;11.190;2022-07-11T07:25:51;13.90;99.90
16929;DHT22;8581;47.334;11.190;2022-07-11T07:28:22;13.90;99.90
16929;DHT22;8581;47.334;11.190;2022-07-11T07:30:54;14.00;99.90
16929;DHT22;8581;47.334;11.190;2022-07-11T07:33:25;14.00;99.90
16929;DHT22;8581;47.334;11.190;2022-07-11T07:35:57;14.00;99.90
16929;DHT22;8581;47.334;11.190;2022-07-11T07:38:29;14.10;99.90
16929;DHT22;8581;47.334;11.190;2022-07-11T07:41:00;14.30;99.90
16929;DHT22;8581;47.334;11.190;2022-07-11T07:43:32;14.40;99.90
16929;DHT22;8581;47.334;11.190;2022-07-11T07:46:04;14.40;99.90
16929;DHT22;8581;47.334;11.190;2022-07-11T07:48:36;14.50;99.90
16929;DHT22;8581;47.334;11.190;2022-07-11T07:51:08;14.40;99.90
16929;DHT22;8581;47.334;11.190;2022-07-11T07:53:39;14.40;99.90
16929;DHT22;8581;47.334;11.190;2022-07-11T07:56:11;14.20;99.90
16929;DHT22;8581;47.334;11.190;2022-07-11T07:58:43;14.50;99.90
16929;DHT22;8581;47.334;11.190;2022-07-11T08:01:14;14.70;99.90
16929;DHT22;8581;47.334;11.190;2022-07-11T08:03:52;14.80;99.90
16929;DHT22;8581;47.334;11.190;2022-07-11T08:06:23;14.80;99.90
16929;DHT22;8581;47.334;11.190;2022-07-11T08:08:55;15.00;99.90
16929;DHT22;8581;47.334;11.190;2022-07-11T08:11:27;14.90;99.90
16929;DHT22;8581;47.334;11.190;2022-07-11T08:13:59;15.20;99.90
16929;DHT22;8581;47.334;11.190;2022-07-11T08:16:31;15.20;99.90
16929;DHT22;8581;47.334;11.190;2022-07-11T08:19:03;15.40;99.90
16929;DHT22;8581;47.334;11.190;2022-07-11T08:21:33;15.20;99.90
16929;DHT22;8581;47.334;11.190;2022-07-11T08:24:05;15.20;99.90
16929;DHT22;8581;47.334;11.190;2022-07-11T08:26:37;15.30;99.90
16929;DHT22;8581;47.334;11.190;2022-07-11T08:29:09;15.20;99.90
16929;DHT22;8581;47.334;11.190;2022-07-11T08:31:40;15.20;99.90
16929;DHT22;8581;47.334;11.190;2022-07-11T08:34:12;15.50;99.90
16929;DHT22;8581;47.334;11.190;2022-07-11T08:36:43;15.70;99.90
16929;DHT22;8581;47.334;11.190;2022-07-11T08:39:15;15.90;99.90
16929;DHT22;8581;47.334;11.190;2022-07-11T08:41:47;16.00;99.90
16929;DHT22;8581;47.334;11.190;2022-07-11T08:44:18;16.00;99.90
16929;DHT22;8581;47.334;11.190;2022-07-11T08:46:50;16.00;99.90
16929;DHT22;8581;47.334;11.190;2022-07-11T08:49:23;16.20;99.90
16929;DHT22;8581;47.334;11.190;2022-07-11T08:51:56;16.60;99.90
16929;DHT22;8581;47.334;11.190;2022-07-11T08:57:08;16.70;99.90
16929;DHT22;8581;47.334;11.190;2022-07-11T08:59:40;16.80;99.90
16929;DHT22;8581;47.334;11.190;2022-07-11T09:02:12;16.70;99.90
16929;DHT22;8581;47.334;11.190;2022-07-11T09:04:43;16.90;99.90
16929;DHT22;8581;47.334;11.190;2022-07-11T09:07:15;16.80;99.90
16929;DHT22;8581;47.334;11.190;2022-07-11T09:09:47;17.00;99.90
16929;DHT22;8581;47.334;11.190;2022-07-11T09:12:18;17.00;99.90
16929;DHT22;8581;47.334;11.190;2022-07-11T09:14:50;17.30;99.90
16929;DHT22;8581;47.334;11.190;2022-07-11T09:17:25;17.40;99.90
16929;DHT22;8581;47.334;11.190;2022-07-11T09:19:56;17.50;99.90
16929;DHT22;8581;47.334;11.190;2022-07-11T09:22:28;17.80;99.90
16929;DHT22;8581;47.334;11.190;2022-07-11T09:25:07;18.00;99.90
16929;DHT22;8581;47.334;11.190;2022-07-11T09:27:54;18.00;99.90
16929;DHT22;8581;47.334;11.190;2022-07-11T09:30:26;18.30;99.90
16929;DHT22;8581;47.334;11.190;2022-07-11T09:32:59;18.60;99.90
16929;DHT22;8581;47.334;11.190;2022-07-11T09:35:33;18.70;99.90
16929;DHT22;8581;47.334;11.190;2022-07-11T09:38:07;18.90;99.90
16929;DHT22;8581;47.334;11.190;2022-07-11T09:40:38;19.10;99.90
16929;DHT22;8581;47.334;11.190;2022-07-11T09:43:10;19.20;99.90
16929;DHT22;8581;47.334;11.190;2022-07-11T09:45:41;19.20;99.90
16929;DHT22;8581;47.334;11.190;2022-07-11T09:48:13;19.50;99.90
16929;DHT22;8581;47.334;11.190;2022-07-11T09:50:57;19.50;99.90
16929;DHT22;8581;47.334;11.190;2022-07-11T09:53:32;19.70;99.90
16929;DHT22;8581;47.334;11.190;2022-07-11T09:56:04;19.90;99.90
16929;DHT22;8581;47.334;11.190;2022-07-11T09:58:36;20.10;99.90
16929;DHT22;8581;47.334;11.190;2022-07-11T10:01:07;20.30;99.90
16929;DHT22;8581;47.334;11.190;2022-07-11T10:03:39;20.80;99.90
16929;DHT22;8581;47.334;11.190;2022-07-11T10:06:11;21.50;99.90
16929;DHT22;8581;47.334;11.190;2022-07-11T10:08:43;22.10;99.90
16929;DHT22;8581;47.334;11.190;2022-07-11T10:11:14;22.40;99.90
16929;DHT22;8581;47.334;11.190;2022-07-11T10:13:46;22.70;99.90
16929;DHT22;8581;47.334;11.190;2022-07-11T10:16:32;23.80;99.90
16929;DHT22;8581;47.334;11.190;2022-07-11T10:19:11;24.10;99.90
16929;DHT22;8581;47.334;11.190;2022-07-11T10:21:56;24.40;99.90
16929;DHT22;8581;47.334;11.190;2022-07-11T10:24:51;25.10;99.90
16929;DHT22;8581;47.334;11.190;2022-07-11T10:27:29;25.20;99.90
16929;DHT22;8581;47.334;11.190;2022-07-11T10:29:59;25.50;99.90
16929;DHT22;8581;47.334;11.190;2022-07-11T10:32:31;26.50;99.90
16929;DHT22;8581;47.334;11.190;2022-07-11T10:35:08;26.30;99.90
16929;DHT22;8581;47.334;11.190;2022-07-11T10:37:47;26.50;99.90
16929;DHT22;8581;47.334;11.190;2022-07-11T10:40:58;26.70;99.90
16929;DHT22;8581;47.334;11.190;2022-07-11T10:43:31;27.70;99.90
16929;DHT22;8581;47.334;11.190;2022-07-11T10:45:57;28.20;99.90
16929;DHT22;8581;47.334;11.190;2022-07-11T10:48:30;28.60;99.80
16929;DHT22;8581;47.334;11.190;2022-07-11T10:51:21;28.20;99.70
16929;DHT22;8581;47.334;11.190;2022-07-11T10:53:51;28.50;99.60
16929;DHT22;8581;47.334;11.190;2022-07-11T10:56:46;29.00;98.60
16929;DHT22;8581;47.334;11.190;2022-07-11T10:59:16;28.80;98.10
16929;DHT22;8581;47.334;11.190;2022-07-11T11:04:48;29.30;96.60
16929;DHT22;8581;47.334;11.190;2022-07-11T11:07:31;29.40;97.90
16929;DHT22;8581;47.334;11.190;2022-07-11T11:10:04;29.70;95.20
16929;DHT22;8581;47.334;11.190;2022-07-11T11:15:39;29.50;95.70
16929;DHT22;8581;47.334;11.190;2022-07-11T11:21:12;30.70;94.30
16929;DHT22;8581;47.334;11.190;2022-07-11T11:23:45;31.00;93.40
16929;DHT22;8581;47.334;11.190;2022-07-11T11:26:18;30.60;93.50
16929;DHT22;8581;47.334;11.190;2022-07-11T11:28:55;30.30;92.90
16929;DHT22;8581;47.334;11.190;2022-07-11T11:31:26;29.40;93.00
16929;DHT22;8581;47.334;11.190;2022-07-11T11:33:58;30.70;92.20
16929;DHT22;8581;47.334;11.190;2022-07-11T11:36:29;31.30;92.10
16929;DHT22;8581;47.334;11.190;2022-07-11T11:39:01;31.80;91.50
16929;DHT22;8581;47.334;11.190;2022-07-11T11:41:32;31.90;91.20
16929;DHT22;8581;47.334;11.190;2022-07-11T11:44:04;31.90;91.00
16929;DHT22;8581;47.334;11.190;2022-07-11T11:46:36;31.50;90.50
16929;DHT22;8581;47.334;11.190;2022-07-11T11:49:07;31.30;90.40
16929;DHT22;8581;47.334;11.190;2022-07-11T11:51:39;31.40;90.70
16929;DHT22;8581;47.334;11.190;2022-07-11T11:54:10;32.20;90.20
16929;DHT22;8581;47.334;11.190;2022-07-11T11:56:42;32.60;88.50
16929;DHT22;8581;47.334;11.190;2022-07-11T11:59:14;32.60;88.10
16929;DHT22;8581;47.334;11.190;2022-07-11T12:01:46;32.30;85.80
16929;DHT22;8581;47.334;11.190;2022-07-11T12:04:17;31.70;87.30
16929;DHT22;8581;47.334;11.190;2022-07-11T12:06:49;32.70;88.40
16929;DHT22;8581;47.334;11.190;2022-07-11T12:09:21;31.90;87.50
16929;DHT22;8581;47.334;11.190;2022-07-11T12:12:07;32.60;86.70
16929;DHT22;8581;47.334;11.190;2022-07-11T12:14:44;32.40;86.70
16929;DHT22;8581;47.334;11.190;2022-07-11T12:17:15;33.30;85.70
16929;DHT22;8581;47.334;11.190;2022-07-11T12:19:47;33.80;83.20
16929;DHT22;8581;47.334;11.190;2022-07-11T12:22:19;32.70;84.20
16929;DHT22;8581;47.334;11.190;2022-07-11T12:24:51;32.90;82.70
16929;DHT22;8581;47.334;11.190;2022-07-11T12:27:22;31.40;84.40
16929;DHT22;8581;47.334;11.190;2022-07-11T12:29:53;31.00;85.80
16929;DHT22;8581;47.334;11.190;2022-07-11T12:32:25;30.70;86.90
16929;DHT22;8581;47.334;11.190;2022-07-11T12:34:57;31.20;86.40
16929;DHT22;8581;47.334;11.190;2022-07-11T12:37:36;32.30;86.00
16929;DHT22;8581;47.334;11.190;2022-07-11T12:40:00;32.70;82.80
16929;DHT22;8581;47.334;11.190;2022-07-11T12:42:32;32.80;83.90
16929;DHT22;8581;47.334;11.190;2022-07-11T12:45:05;33.60;82.90
16929;DHT22;8581;47.334;11.190;2022-07-11T12:47:40;33.70;83.20
16929;DHT22;8581;47.334;11.190;2022-07-11T12:50:18;34.00;78.40
16929;DHT22;8581;47.334;11.190;2022-07-11T12:52:51;34.60;80.90
16929;DHT22;8581;47.334;11.190;2022-07-11T12:55:24;34.90;77.20
16929;DHT22;8581;47.334;11.190;2022-07-11T12:58:10;35.40;76.00
16929;DHT22;8581;47.334;11.190;2022-07-11T13:00:56;34.10;82.00
16929;DHT22;8581;47.334;11.190;2022-07-11T13:03:15;35.20;75.90
16929;DHT22;8581;47.334;11.190;2022-07-11T13:05:49;34.30;78.30
16929;DHT22;8581;47.334;11.190;2022-07-11T13:08:21;35.10;76.80
16929;DHT22;8581;47.334;11.190;2022-07-11T13:10:58;34.10;76.00
16929;DHT22;8581;47.334;11.190;2022-07-11T13:13:31;33.20;77.00
16929;DHT22;8581;47.334;11.190;2022-07-11T13:16:01;32.20;79.10
16929;DHT22;8581;47.334;11.190;2022-07-11T13:18:33;31.60;81.70
16929;DHT22;8581;47.334;11.190;2022-07-11T13:21:05;32.40;82.00
16929;DHT22;8581;47.334;11.190;2022-07-11T13:23:36;33.70;79.90
16929;DHT22;8581;47.334;11.190;2022-07-11T13:26:08;33.20;78.10
16929;DHT22;8581;47.334;11.190;2022-07-11T13:28:39;33.40;78.30
16929;DHT22;8581;47.334;11.190;2022-07-11T13:31:11;32.80;78.60
16929;DHT22;8581;47.334;11.190;2022-07-11T13:33:43;32.10;80.00
16929;DHT22;8581;47.334;11.190;2022-07-11T13:36:14;32.30;79.40
16929;DHT22;8581;47.334;11.190;2022-07-11T13:38:46;32.20;79.80
16929;DHT22;8581;47.334;11.190;2022-07-11T13:41:17;31.90;81.30
16929;DHT22;8581;47.334;11.190;2022-07-11T13:43:49;31.40;80.30
16929;DHT22;8581;47.334;11.190;2022-07-11T13:46:21;32.50;80.50
16929;DHT22;8581;47.334;11.190;2022-07-11T13:48:52;32.30;80.30
16929;DHT22;8581;47.334;11.190;2022-07-11T13:51:24;32.40;81.60
16929;DHT22;8581;47.334;11.190;2022-07-11T13:53:55;33.40;79.60
16929;DHT22;8581;47.334;11.190;2022-07-11T13:56:28;34.80;77.60
16929;DHT22;8581;47.334;11.190;2022-07-11T13:58:59;35.70;76.30
16929;DHT22;8581;47.334;11.190;2022-07-11T14:01:30;35.10;74.40
16929;DHT22;8581;47.334;11.190;2022-07-11T14:04:02;35.10;75.20
16929;DHT22;8581;47.334;11.190;2022-07-11T14:06:34;35.20;73.50
16929;DHT22;8581;47.334;11.190;2022-07-11T14:09:06;34.30;76.60
16929;DHT22;8581;47.334;11.190;2022-07-11T14:11:37;33.90;75.80
16929;DHT22;8581;47.334;11.190;2022-07-11T14:14:09;34.50;75.30
16929;DHT22;8581;47.334;11.190;2022-07-11T14:16:40;34.40;75.00
16929;DHT22;8581;47.334;11.190;2022-07-11T14:19:12;35.10;73.60
16929;DHT22;8581;47.334;11.190;2022-07-11T14:21:44;35.30;75.30
16929;DHT22;8581;47.334;11.190;2022-07-11T14:24:15;36.20;72.20
16929;DHT22;8581;47.334;11.190;2022-07-11T14:26:47;35.70;74.00
16929;DHT22;8581;47.334;11.190;2022-07-11T14:29:19;34.80;73.60
16929;DHT22;8581;47.334;11.190;2022-07-11T14:31:51;33.70;75.00
16929;DHT22;8581;47.334;11.190;2022-07-11T14:34:23;34.30;75.00
16929;DHT22;8581;47.334;11.190;2022-07-11T14:36:55;34.70;73.90
16929;DHT22;8581;47.334;11.190;2022-07-11T14:39:26;35.50;72.20
16929;DHT22;8581;47.334;11.190;2022-07-11T14:41:58;36.20;73.10
16929;DHT22;8581;47.334;11.190;2022-07-11T14:44:29;35.80;70.90
16929;DHT22;8581;47.334;11.190;2022-07-11T14:47:01;35.40;70.90
16929;DHT22;8581;47.334;11.190;2022-07-11T14:49:33;35.30;72.80
16929;DHT22;8581;47.334;11.190;2022-07-11T14:52:05;35.30;72.40
16929;DHT22;8581;47.334;11.190;2022-07-11T14:54:37;34.30;75.20
16929;DHT22;8581;47.334;11.190;2022-07-11T14:57:08;35.10;73.20
16929;DHT22;8581;47.334;11.190;2022-07-11T14:59:40;35.70;71.70
16929;DHT22;8581;47.334;11.190;2022-07-11T15:02:12;35.20;74.70
16929;DHT22;8581;47.334;11.190;2022-07-11T15:04:43;34.00;73.60
16929;DHT22;8581;47.334;11.190;2022-07-11T15:07:15;35.50;71.50
16929;DHT22;8581;47.334;11.190;2022-07-11T15:09:52;36.00;70.30
16929;DHT22;8581;47.334;11.190;2022-07-11T15:12:29;35.50;71.50
16929;DHT22;8581;47.334;11.190;2022-07-11T15:15:01;35.70;71.50
16929;DHT22;8581;47.334;11.190;2022-07-11T15:17:32;36.40;70.10
16929;DHT22;8581;47.334;11.190;2022-07-11T15:20:05;35.60;68.80
16929;DHT22;8581;47.334;11.190;2022-07-11T15:22:36;35.30;70.20
16929;DHT22;8581;47.334;11.190;2022-07-11T15:25:08;34.30;71.90
16929;DHT22;8581;47.334;11.190;2022-07-11T15:27:40;34.80;72.20
16929;DHT22;8581;47.334;11.190;2022-07-11T15:30:11;34.10;71.60
16929;DHT22;8581;47.334;11.190;2022-07-11T15:32:44;33.80;72.90
16929;DHT22;8581;47.334;11.190;2022-07-11T15:35:15;34.30;72.10
16929;DHT22;8581;47.334;11.190;2022-07-11T15:37:47;34.40;71.20
16929;DHT22;8581;47.334;11.190;2022-07-11T15:40:18;33.70;74.10
16929;DHT22;8581;47.334;11.190;2022-07-11T15:42:50;34.50;71.50
16929;DHT22;8581;47.334;11.190;2022-07-11T15:45:22;34.60;70.40
16929;DHT22;8581;47.334;11.190;2022-07-11T15:47:55;33.70;72.40
16929;DHT22;8581;47.334;11.190;2022-07-11T15:50:25;32.40;75.90
16929;DHT22;8581;47.334;11.190;2022-07-11T15:52:56;33.00;74.70
16929;DHT22;8581;47.334;11.190;2022-07-11T15:55:28;33.70;74.30
16929;DHT22;8581;47.334;11.190;2022-07-11T15:58:00;33.70;72.70
16929;DHT22;8581;47.334;11.190;2022-07-11T16:00:31;33.80;72.70
16929;DHT22;8581;47.334;11.190;2022-07-11T16:03:03;33.30;74.70
16929;DHT22;8581;47.334;11.190;2022-07-11T16:05:35;33.10;73.80
16929;DHT22;8581;47.334;11.190;2022-07-11T16:08:06;33.60;73.20
16929;DHT22;8581;47.334;11.190;2022-07-11T16:10:38;33.60;73.40
16929;DHT22;8581;47.334;11.190;2022-07-11T16:13:09;34.10;72.00
16929;DHT22;8581;47.334;11.190;2022-07-11T16:15:42;33.10;73.10
16929;DHT22;8581;47.334;11.190;2022-07-11T16:18:13;32.10;75.70